createdAt,value
2023-02-19T00:02:01.560Z,81.53
2023-02-19T00:04:37.849Z,81.37
2023-02-19T00:07:14.501Z,81.15
2023-02-19T00:09:50.987Z,81.00
2023-02-19T00:12:28.873Z,81.01
2023-02-19T00:15:05.611Z,80.99
2023-02-19T00:17:42.310Z,81.18
2023-02-19T00:20:19.402Z,81.20
2023-02-19T00:22:55.956Z,81.30
2023-02-19T00:25:33.586Z,81.41
2023-02-19T00:28:10.486Z,81.53
2023-02-19T00:30:46.738Z,81.54
2023-02-19T00:33:23.275Z,81.59
2023-02-19T00:36:02.746Z,81.41
2023-02-19T00:38:42.165Z,81.20
2023-02-19T00:41:21.541Z,80.98
2023-02-19T00:44:00.568Z,80.98
2023-02-19T00:46:40.668Z,81.12
2023-02-19T00:49:24.597Z,81.20
2023-02-19T00:52:01.380Z,81.31
2023-02-19T00:54:37.644Z,81.21
2023-02-19T00:57:13.902Z,81.10
2023-02-19T00:59:50.368Z,80.99
2023-02-19T01:02:27.850Z,80.87
2023-02-19T01:05:05.712Z,80.83
2023-02-19T01:07:43.155Z,80.87
2023-02-19T01:10:19.705Z,80.95
2023-02-19T01:12:56.187Z,81.04
2023-02-19T01:15:33.558Z,81.18
2023-02-19T01:18:11.086Z,81.21
2023-02-19T01:20:48.960Z,81.26
2023-02-19T01:23:26.054Z,81.33
2023-02-19T01:26:04.685Z,81.38
2023-02-19T01:28:41.279Z,81.45
2023-02-19T01:31:22.565Z,81.39
2023-02-19T01:34:04.353Z,81.38
2023-02-19T01:36:40.781Z,81.30
2023-02-19T01:39:18.071Z,81.27
2023-02-19T01:41:54.363Z,81.09
2023-02-19T01:45:25.410Z,80.92
2023-02-19T01:48:12.640Z,80.74
2023-02-19T01:50:54.784Z,80.64
2023-02-19T01:53:38.502Z,80.45
2023-02-19T01:56:17.165Z,80.27
2023-02-19T01:58:54.273Z,80.16
2023-02-19T02:01:30.696Z,80.10
2023-02-19T02:04:11.027Z,80.19
2023-02-19T02:06:54.095Z,80.29
2023-02-19T02:09:51.301Z,80.45
2023-02-19T02:12:27.831Z,80.75
2023-02-19T02:15:05.022Z,81.09
2023-02-19T02:17:54.093Z,81.39
2023-02-19T02:21:05.690Z,81.52
2023-02-19T02:24:13.037Z,81.67
2023-02-19T02:27:17.506Z,81.88
2023-02-19T02:30:42.839Z,82.22
2023-02-19T02:33:34.236Z,82.33
2023-02-19T02:36:13.649Z,82.34
2023-02-19T02:38:54.376Z,82.22
2023-02-19T02:41:31.463Z,82.12
2023-02-19T02:44:08.659Z,82.09
2023-02-19T02:46:49.507Z,82.11
2023-02-19T02:49:28.775Z,82.03
2023-02-19T02:52:26.785Z,82.00
2023-02-19T02:55:06.294Z,82.07
2023-02-19T02:57:43.189Z,82.27
2023-02-19T03:00:21.189Z,82.35
2023-02-19T03:02:59.114Z,82.56
2023-02-19T03:05:54.073Z,82.77
2023-02-19T03:08:38.316Z,82.99
2023-02-19T03:11:34.120Z,82.94
2023-02-19T03:14:38.959Z,82.93
2023-02-19T03:17:39.364Z,83.00
2023-02-19T03:20:24.164Z,83.04
2023-02-19T03:23:03.260Z,83.09
2023-02-19T03:26:00.788Z,83.15
2023-02-19T03:29:18.499Z,83.28
2023-02-19T03:31:59.534Z,83.32
2023-02-19T03:34:44.206Z,83.30
2023-02-19T03:37:29.822Z,83.41
2023-02-19T03:40:09.712Z,83.48
2023-02-19T03:42:59.992Z,83.55
2023-02-19T03:46:03.875Z,83.65
2023-02-19T03:48:53.415Z,83.73
2023-02-19T03:51:41.583Z,83.89
2023-02-19T03:54:28.528Z,84.02
2023-02-19T03:57:17.792Z,84.17
2023-02-19T04:00:04.053Z,84.31
2023-02-19T04:02:58.311Z,84.41
2023-02-19T04:05:42.740Z,84.68
2023-02-19T04:08:26.452Z,84.76
2023-02-19T04:11:10.064Z,84.82
2023-02-19T04:13:56.734Z,85.06
2023-02-19T04:16:38.308Z,85.08
2023-02-19T04:19:21.216Z,85.32
2023-02-19T04:21:59.792Z,85.17
2023-02-19T04:24:43.022Z,85.18
2023-02-19T04:27:19.909Z,85.27
2023-02-19T04:29:56.173Z,85.24
2023-02-19T04:32:32.742Z,85.30
2023-02-19T04:35:10.026Z,85.40
2023-02-19T04:37:46.283Z,85.37
2023-02-19T04:40:23.867Z,85.46
2023-02-19T04:43:00.225Z,85.54
2023-02-19T04:45:38.149Z,85.56
2023-02-19T04:48:15.020Z,85.67
2023-02-19T04:50:51.279Z,85.60
2023-02-19T04:53:27.847Z,85.68
2023-02-19T04:56:11.858Z,85.86
2023-02-19T04:58:48.872Z,85.75
2023-02-19T05:01:26.005Z,85.73
2023-02-19T05:04:02.360Z,85.78
2023-02-19T05:06:38.768Z,85.73
2023-02-19T05:09:15.152Z,85.72
2023-02-19T05:11:51.468Z,85.71
2023-02-19T05:14:28.144Z,85.66
2023-02-19T05:17:04.372Z,85.66
2023-02-19T05:19:40.822Z,85.61
2023-02-19T05:22:17.385Z,85.58
2023-02-19T05:24:53.553Z,85.54
2023-02-19T05:27:31.361Z,85.54
2023-02-19T05:30:09.899Z,85.61
2023-02-19T05:32:46.311Z,85.65
2023-02-19T05:35:22.907Z,85.62
2023-02-19T05:37:59.278Z,85.61
2023-02-19T05:40:35.872Z,85.65
2023-02-19T05:43:13.997Z,85.62
2023-02-19T05:45:50.524Z,85.61
2023-02-19T05:48:26.810Z,85.66
2023-02-19T05:51:11.765Z,85.64
2023-02-19T05:53:49.689Z,85.64
2023-02-19T05:56:35.150Z,85.64
2023-02-19T05:59:20.637Z,85.60
2023-02-19T06:01:58.805Z,85.53
2023-02-19T06:04:35.286Z,85.54
2023-02-19T06:07:12.146Z,85.52
2023-02-19T06:09:52.980Z,85.60
2023-02-19T06:12:29.686Z,85.55
2023-02-19T06:15:07.238Z,85.51
2023-02-19T06:17:43.645Z,85.49
2023-02-19T06:20:20.766Z,85.45
2023-02-19T06:22:57.363Z,85.47
2023-02-19T06:25:33.810Z,85.49
2023-02-19T06:28:10.756Z,85.49
2023-02-19T06:30:47.080Z,85.43
2023-02-19T06:33:23.383Z,85.39
2023-02-19T06:36:03.847Z,85.39
2023-02-19T06:38:40.068Z,85.35
2023-02-19T06:41:17.079Z,85.31
2023-02-19T06:43:53.452Z,85.30
2023-02-19T06:46:29.862Z,85.23
2023-02-19T06:49:08.280Z,85.20
2023-02-19T06:51:45.086Z,85.16
2023-02-19T06:54:21.438Z,85.15
2023-02-19T06:56:59.242Z,85.09
2023-02-19T06:59:35.801Z,85.02
2023-02-19T07:02:14.566Z,85.06
2023-02-19T07:04:52.062Z,85.10
2023-02-19T07:07:28.430Z,85.08
2023-02-19T07:10:05.362Z,85.06
2023-02-19T07:12:41.664Z,85.06
2023-02-19T07:15:18.241Z,85.06
2023-02-19T07:17:54.522Z,85.03
2023-02-19T07:20:30.971Z,85.01
2023-02-19T07:23:07.791Z,84.97
2023-02-19T07:25:45.813Z,84.93
2023-02-19T07:28:22.153Z,84.85
2023-02-19T07:31:03.090Z,84.80
2023-02-19T07:33:39.918Z,84.80
2023-02-19T07:36:18.189Z,84.79
2023-02-19T07:39:01.688Z,84.69
2023-02-19T07:41:38.024Z,84.57
2023-02-19T07:44:16.995Z,84.52
2023-02-19T07:46:53.232Z,84.37
2023-02-19T07:49:29.993Z,84.19
2023-02-19T07:52:07.170Z,84.00
2023-02-19T07:54:43.784Z,83.87
2023-02-19T07:57:20.256Z,83.80
2023-02-19T07:59:58.948Z,83.71
2023-02-19T08:02:49.265Z,83.51
2023-02-19T08:05:25.874Z,83.49
2023-02-19T08:08:03.262Z,83.41
2023-02-19T08:10:57.393Z,83.33
2023-02-19T08:13:34.838Z,83.29
2023-02-19T08:16:30.008Z,83.30
2023-02-19T08:19:15.865Z,83.16
2023-02-19T08:21:53.748Z,83.10
2023-02-19T08:24:36.320Z,83.10
2023-02-19T08:27:30.813Z,83.25
2023-02-19T08:30:10.971Z,83.40
2023-02-19T08:32:47.565Z,83.36
2023-02-19T08:35:24.000Z,83.29
2023-02-19T08:38:03.260Z,83.09
2023-02-19T08:40:42.555Z,82.98
2023-02-19T08:43:20.784Z,82.71
2023-02-19T08:45:58.782Z,82.51
2023-02-19T08:48:35.381Z,82.59
2023-02-19T08:51:14.378Z,82.50
2023-02-19T08:53:52.015Z,82.34
2023-02-19T08:56:28.294Z,82.37
2023-02-19T08:59:04.639Z,82.22
2023-02-19T09:01:41.356Z,82.26
2023-02-19T09:04:18.161Z,82.30
2023-02-19T09:06:54.476Z,82.37
2023-02-19T09:09:30.836Z,82.23
2023-02-19T09:12:10.640Z,82.30
2023-02-19T09:14:47.022Z,82.43
2023-02-19T09:17:23.676Z,82.52
2023-02-19T09:20:00.124Z,82.53
2023-02-19T09:22:36.328Z,82.51
2023-02-19T09:25:13.702Z,82.64
2023-02-19T09:27:50.095Z,82.70
2023-02-19T09:30:26.833Z,82.69
2023-02-19T09:33:03.248Z,82.64
2023-02-19T09:35:43.070Z,82.50
2023-02-19T09:38:19.372Z,82.40
2023-02-19T09:40:57.629Z,82.32
2023-02-19T09:43:34.878Z,82.29
2023-02-19T09:46:34.057Z,82.34
2023-02-19T09:49:19.820Z,82.33
2023-02-19T09:52:05.328Z,82.20
2023-02-19T09:54:43.797Z,82.22
2023-02-19T09:57:24.866Z,82.20
2023-02-19T10:00:14.474Z,82.15
2023-02-19T10:02:55.699Z,82.20
2023-02-19T10:05:33.412Z,81.79
2023-02-19T10:08:19.483Z,81.10
2023-02-19T10:10:56.465Z,80.66
2023-02-19T10:13:41.023Z,80.71
2023-02-19T10:16:23.892Z,80.91
2023-02-19T10:19:00.349Z,80.94
2023-02-19T10:21:38.378Z,81.08
2023-02-19T10:24:26.914Z,81.29
2023-02-19T10:27:03.455Z,81.25
2023-02-19T10:29:39.824Z,80.75
2023-02-19T10:32:24.349Z,80.32
2023-02-19T10:35:20.847Z,79.95
2023-02-19T10:37:57.872Z,80.28
2023-02-19T10:40:35.254Z,80.58
2023-02-19T10:43:33.198Z,80.88
2023-02-19T10:46:22.836Z,80.74
2023-02-19T10:49:03.396Z,81.05
2023-02-19T10:51:43.568Z,80.44
2023-02-19T10:54:29.825Z,80.26
2023-02-19T10:57:33.164Z,79.87
2023-02-19T11:00:27.080Z,79.47
2023-02-19T11:03:26.221Z,80.06
2023-02-19T11:06:09.452Z,80.08
2023-02-19T11:09:00.189Z,79.88
2023-02-19T11:11:42.551Z,80.04
2023-02-19T11:14:25.955Z,80.13
2023-02-19T11:17:06.319Z,79.88
2023-02-19T11:19:48.416Z,80.04
2023-02-19T11:22:39.133Z,80.13
2023-02-19T11:25:27.126Z,80.38
2023-02-19T11:28:09.751Z,80.24
2023-02-19T11:30:48.292Z,79.97
2023-02-19T11:33:33.670Z,79.83
2023-02-19T11:39:29.591Z,80.26
2023-02-19T11:42:36.375Z,80.58
2023-02-19T11:45:36.934Z,80.85
2023-02-19T11:49:13.895Z,80.28
2023-02-19T11:52:14.983Z,80.51
2023-02-19T11:55:10.536Z,80.48
2023-02-19T11:57:55.871Z,80.24
2023-02-19T12:00:39.980Z,80.31
2023-02-19T12:03:50.012Z,80.35
2023-02-19T12:06:37.826Z,79.63
2023-02-19T12:09:48.481Z,79.97
2023-02-19T12:12:46.857Z,79.84
2023-02-19T12:15:59.232Z,79.87
2023-02-19T12:19:11.846Z,79.66
2023-02-19T12:22:21.806Z,79.65
2023-02-19T12:25:50.439Z,79.29
2023-02-19T12:29:18.298Z,78.83
2023-02-19T12:32:50.181Z,78.77
2023-02-19T12:35:59.772Z,78.31
2023-02-19T12:38:46.250Z,78.69
2023-02-19T12:41:39.341Z,78.97
2023-02-19T12:44:28.128Z,78.94
2023-02-19T12:47:08.508Z,79.10
2023-02-19T12:49:55.991Z,79.11
2023-02-19T12:52:41.612Z,78.93
2023-02-19T12:55:29.909Z,79.22
2023-02-19T12:58:12.687Z,79.16
2023-02-19T13:00:59.148Z,79.22
2023-02-19T13:03:42.484Z,79.16
2023-02-19T13:06:36.475Z,79.15
2023-02-19T13:09:20.876Z,79.35
2023-02-19T13:12:06.840Z,79.42
2023-02-19T13:14:49.976Z,79.22
2023-02-19T13:17:38.773Z,79.16
2023-02-19T13:20:30.672Z,78.87
2023-02-19T13:23:37.020Z,78.12
2023-02-19T13:26:40.304Z,77.49
2023-02-19T13:29:53.394Z,76.48
2023-02-19T13:33:00.173Z,76.01
2023-02-19T13:36:08.222Z,76.45
2023-02-19T13:38:50.175Z,76.38
2023-02-19T13:41:33.262Z,76.09
2023-02-19T13:44:20.633Z,76.36
2023-02-19T13:46:57.354Z,76.27
2023-02-19T13:49:53.122Z,75.75
2023-02-19T13:52:48.253Z,75.58
2023-02-19T13:56:05.206Z,75.36
2023-02-19T13:59:01.573Z,74.95
2023-02-19T14:02:27.192Z,74.73
2023-02-19T14:05:10.559Z,74.64
2023-02-19T14:08:04.041Z,75.38
2023-02-19T14:11:05.076Z,75.57
2023-02-19T14:14:07.042Z,75.76
2023-02-19T14:17:28.612Z,75.93
2023-02-19T14:20:45.950Z,75.85
2023-02-19T14:23:27.161Z,75.80
2023-02-19T14:26:09.704Z,75.60
2023-02-19T14:28:51.858Z,74.81
2023-02-19T14:31:38.340Z,74.36
2023-02-19T14:34:27.023Z,73.72
2023-02-19T14:37:06.999Z,73.22
2023-02-19T14:39:45.502Z,73.78
2023-02-19T14:42:33.628Z,73.21
2023-02-19T14:45:17.273Z,73.44
2023-02-19T14:47:58.654Z,73.53
2023-02-19T14:50:37.937Z,73.74
2023-02-19T14:53:18.765Z,73.94
2023-02-19T14:55:58.391Z,74.14
2023-02-19T14:58:40.927Z,74.03
2023-02-19T15:01:32.119Z,73.82
2023-02-19T15:04:22.268Z,73.67
2023-02-19T15:07:02.397Z,73.52
2023-02-19T15:09:44.821Z,73.73
2023-02-19T15:12:26.780Z,73.83
2023-02-19T15:15:08.039Z,74.00
2023-02-19T15:17:45.879Z,73.59
2023-02-19T15:20:28.118Z,73.09
2023-02-19T15:23:08.914Z,73.40
2023-02-19T15:25:48.222Z,73.58
2023-02-19T15:28:36.599Z,73.67
2023-02-19T15:31:20.297Z,73.82
2023-02-19T15:33:57.762Z,74.13
2023-02-19T15:36:38.071Z,74.43
2023-02-19T15:39:24.229Z,74.35
2023-02-19T15:42:07.615Z,74.13
2023-02-19T15:44:53.809Z,74.60
2023-02-19T15:47:39.511Z,74.39
2023-02-19T15:50:24.246Z,74.06
2023-02-19T15:53:09.449Z,73.99
2023-02-19T15:55:56.997Z,73.70
2023-02-19T15:58:42.950Z,73.84
2023-02-19T16:01:26.335Z,73.61
2023-02-19T16:04:03.632Z,73.86
2023-02-19T16:06:57.167Z,73.81
2023-02-19T16:09:40.462Z,73.72
2023-02-19T16:12:28.270Z,73.87
2023-02-19T16:15:15.288Z,73.92
2023-02-19T16:17:52.225Z,73.70
2023-02-19T16:20:34.835Z,73.84
2023-02-19T16:23:22.074Z,73.92
2023-02-19T16:26:06.211Z,74.10
2023-02-19T16:28:51.563Z,74.26
2023-02-19T16:31:29.963Z,74.40
2023-02-19T16:37:40.919Z,73.81
2023-02-19T16:41:16.464Z,73.69
2023-02-19T16:43:53.043Z,73.46
2023-02-19T16:46:30.541Z,73.45
2023-02-19T16:49:07.374Z,73.39
2023-02-19T16:51:45.468Z,72.93
2023-02-19T16:54:23.544Z,72.67
2023-02-19T16:57:00.468Z,72.63
2023-02-19T16:59:37.336Z,72.08
2023-02-19T17:02:22.236Z,71.36
2023-02-19T17:04:58.968Z,71.22
2023-02-19T17:07:35.496Z,70.97
2023-02-19T17:10:15.170Z,70.72
2023-02-19T17:12:51.502Z,70.62
2023-02-19T17:15:28.258Z,70.61
2023-02-19T17:18:05.150Z,70.84
2023-02-19T17:20:42.185Z,70.98
2023-02-19T17:23:19.434Z,71.15
2023-02-19T17:25:56.046Z,70.81
2023-02-19T17:28:32.403Z,71.20
2023-02-19T17:31:10.063Z,71.32
2023-02-19T17:33:47.244Z,71.33
2023-02-19T17:36:27.936Z,71.26
2023-02-19T17:39:07.371Z,71.20
2023-02-19T17:41:44.732Z,71.21
2023-02-19T17:44:22.011Z,71.41
2023-02-19T17:46:58.681Z,71.50
2023-02-19T17:49:36.813Z,71.63
2023-02-19T17:52:17.823Z,71.19
2023-02-19T17:54:57.635Z,71.13
2023-02-19T17:57:34.040Z,71.03
2023-02-19T18:00:20.447Z,70.72
2023-02-19T18:02:57.824Z,70.82
2023-02-19T18:05:34.663Z,71.12
2023-02-19T18:08:11.424Z,71.22
2023-02-19T18:10:47.919Z,71.26
2023-02-19T18:13:24.742Z,71.30
2023-02-19T18:16:01.434Z,71.33
2023-02-19T18:18:38.388Z,71.11
2023-02-19T18:21:16.781Z,71.22
2023-02-19T18:23:54.204Z,71.05
2023-02-19T18:26:30.810Z,71.23
2023-02-19T18:29:07.841Z,71.39
2023-02-19T18:31:44.618Z,71.33
2023-02-19T18:34:24.591Z,71.42
2023-02-19T18:37:01.479Z,71.48
2023-02-19T18:39:38.847Z,71.51
2023-02-19T18:42:16.358Z,71.53
2023-02-19T18:44:55.597Z,71.58
2023-02-19T18:47:32.132Z,71.78
2023-02-19T18:50:10.826Z,71.90
2023-02-19T18:52:47.472Z,72.02
2023-02-19T18:55:24.908Z,72.15
2023-02-19T18:58:01.755Z,72.45
2023-02-19T19:00:39.441Z,72.51
2023-02-19T19:03:16.222Z,72.58
2023-02-19T19:05:52.962Z,72.77
2023-02-19T19:08:30.736Z,73.02
2023-02-19T19:11:07.884Z,73.15
2023-02-19T19:13:46.365Z,73.29
2023-02-19T19:16:26.265Z,73.31
2023-02-19T19:19:03.256Z,73.47
2023-02-19T19:21:40.632Z,73.63
2023-02-19T19:24:18.170Z,73.85
2023-02-19T19:26:57.518Z,74.00
2023-02-19T19:29:34.753Z,74.11
2023-02-19T19:32:12.373Z,74.34
2023-02-19T19:34:49.654Z,74.45
2023-02-19T19:37:28.491Z,74.58
2023-02-19T19:40:05.970Z,74.60
2023-02-19T19:42:44.520Z,74.70
2023-02-19T19:45:26.164Z,74.85
2023-02-19T19:48:03.477Z,74.95
2023-02-19T19:50:40.320Z,74.92
2023-02-19T19:53:17.292Z,74.90
2023-02-19T19:55:54.123Z,74.98
2023-02-19T19:58:30.778Z,75.04
2023-02-19T20:01:08.737Z,75.19
2023-02-19T20:03:45.810Z,75.12
2023-02-19T20:06:32.280Z,75.11
2023-02-19T20:09:09.369Z,75.19
2023-02-19T20:11:53.276Z,75.23
2023-02-19T20:14:31.781Z,75.22
2023-02-19T20:17:09.683Z,75.16
2023-02-19T20:19:48.685Z,75.05
2023-02-19T20:22:25.511Z,75.20
2023-02-19T20:25:03.107Z,75.14
2023-02-19T20:27:40.169Z,75.18
2023-02-19T20:30:20.075Z,75.11
2023-02-19T20:32:58.372Z,75.16
2023-02-19T20:35:35.964Z,75.20
2023-02-19T20:38:17.508Z,75.21
2023-02-19T20:40:54.835Z,75.25
2023-02-19T20:43:31.523Z,75.30
2023-02-19T20:46:08.783Z,75.30
2023-02-19T20:48:45.843Z,75.40
2023-02-19T20:51:23.124Z,75.51
2023-02-19T20:53:59.928Z,75.54
2023-02-19T20:56:36.649Z,75.63
2023-02-19T20:59:13.491Z,75.69
2023-02-19T21:01:50.570Z,75.74
2023-02-19T21:04:28.096Z,75.82
2023-02-19T21:07:06.635Z,75.77
2023-02-19T21:09:43.832Z,75.80
2023-02-19T21:12:20.854Z,75.87
2023-02-19T21:14:57.286Z,75.89
2023-02-19T21:17:34.633Z,75.88
2023-02-19T21:20:14.054Z,75.90
2023-02-19T21:22:51.195Z,76.00
2023-02-19T21:25:28.084Z,76.04
2023-02-19T21:28:05.561Z,76.01
2023-02-19T21:30:42.173Z,76.15
2023-02-19T21:33:19.511Z,76.25
2023-02-19T21:35:57.628Z,76.32
2023-02-19T21:38:34.598Z,76.40
2023-02-19T21:41:11.829Z,76.40
2023-02-19T21:43:48.325Z,76.50
2023-02-19T21:46:26.371Z,76.73
2023-02-19T21:49:03.921Z,76.90
2023-02-19T21:51:43.705Z,77.04
2023-02-19T21:54:25.792Z,77.12
2023-02-19T21:57:06.117Z,77.33
2023-02-19T21:59:42.922Z,77.48
2023-02-19T22:02:22.163Z,77.69
2023-02-19T22:04:59.668Z,77.64
2023-02-19T22:07:36.732Z,77.69
2023-02-19T22:10:16.739Z,77.83
2023-02-19T22:12:53.363Z,77.90
2023-02-19T22:15:29.989Z,77.85
2023-02-19T22:18:06.979Z,77.85
2023-02-19T22:20:43.692Z,77.89
2023-02-19T22:23:20.780Z,77.91
2023-02-19T22:25:57.738Z,77.96
2023-02-19T22:28:34.465Z,78.02
2023-02-19T22:31:13.309Z,78.09
2023-02-19T22:33:50.835Z,78.06
2023-02-19T22:36:31.507Z,78.10
2023-02-19T22:39:09.653Z,78.13
2023-02-19T22:41:49.418Z,78.12
2023-02-19T22:44:26.153Z,78.19
2023-02-19T22:47:02.653Z,78.28
2023-02-19T22:49:43.859Z,78.26
2023-02-19T22:52:21.051Z,78.25
2023-02-19T22:54:58.643Z,78.38
2023-02-19T22:57:36.384Z,78.40
2023-02-19T23:00:21.708Z,78.37
2023-02-19T23:02:57.961Z,78.44
2023-02-19T23:05:34.727Z,78.42
2023-02-19T23:08:11.324Z,78.40
2023-02-19T23:10:47.899Z,78.46
2023-02-19T23:13:24.363Z,78.44
2023-02-19T23:16:01.055Z,78.47
2023-02-19T23:18:37.874Z,78.40
2023-02-19T23:21:14.880Z,78.47
2023-02-19T23:23:51.925Z,78.44
2023-02-19T23:26:28.482Z,78.40
2023-02-19T23:29:05.266Z,78.46
2023-02-19T23:31:41.617Z,78.44
2023-02-19T23:34:19.546Z,78.52
2023-02-19T23:36:59.563Z,78.53
2023-02-19T23:39:35.903Z,78.59
2023-02-19T23:42:16.900Z,78.61
2023-02-19T23:44:53.460Z,78.60
2023-02-19T23:47:30.772Z,78.62
2023-02-19T23:50:08.544Z,78.75
2023-02-19T23:52:44.996Z,78.75
2023-02-19T23:55:21.409Z,78.74
2023-02-19T23:57:57.748Z,78.72
